sensor_id;sensor_type;location;lat;lon;timestamp;P1;durP1;ratioP1;P2;durP2;ratioP2
14137;SDS011;8199;51.310;9.466;2023-09-18T00:00:00;9.13;;;7.97;;
14137;SDS011;8199;51.310;9.466;2023-09-18T00:02:37;9.50;;;8.50;;
14137;SDS011;8199;51.310;9.466;2023-09-18T00:05:03;9.45;;;8.15;;
14137;SDS011;8199;51.310;9.466;2023-09-18T00:07:29;10.55;;;9.23;;
14137;SDS011;8199;51.310;9.466;2023-09-18T00:09:54;9.10;;;8.20;;
14137;SDS011;8199;51.310;9.466;2023-09-18T00:12:20;9.30;;;8.32;;
14137;SDS011;8199;51.310;9.466;2023-09-18T00:14:49;9.40;;;8.50;;
14137;SDS011;8199;51.310;9.466;2023-09-18T00:17:15;8.75;;;7.72;;
14137;SDS011;8199;51.310;9.466;2023-09-18T00:19:42;9.05;;;8.10;;
14137;SDS011;8199;51.310;9.466;2023-09-18T00:22:08;11.35;;;8.25;;
14137;SDS011;8199;51.310;9.466;2023-09-18T00:24:33;7.88;;;7.13;;
14137;SDS011;8199;51.310;9.466;2023-09-18T00:26:59;9.07;;;8.00;;
14137;SDS011;8199;51.310;9.466;2023-09-18T00:29:24;7.88;;;7.07;;
14137;SDS011;8199;51.310;9.466;2023-09-18T00:31:50;8.35;;;7.45;;
14137;SDS011;8199;51.310;9.466;2023-09-18T00:34:15;8.38;;;7.53;;
14137;SDS011;8199;51.310;9.466;2023-09-18T00:36:41;8.07;;;7.15;;
14137;SDS011;8199;51.310;9.466;2023-09-18T00:39:06;8.65;;;7.38;;
14137;SDS011;8199;51.310;9.466;2023-09-18T00:41:33;8.48;;;7.68;;
14137;SDS011;8199;51.310;9.466;2023-09-18T00:43:58;7.95;;;7.25;;
14137;SDS011;8199;51.310;9.466;2023-09-18T00:46:24;8.27;;;7.47;;
14137;SDS011;8199;51.310;9.466;2023-09-18T00:48:50;8.30;;;7.45;;
14137;SDS011;8199;51.310;9.466;2023-09-18T00:51:16;7.45;;;6.75;;
14137;SDS011;8199;51.310;9.466;2023-09-18T00:53:43;7.57;;;6.78;;
14137;SDS011;8199;51.310;9.466;2023-09-18T00:56:10;7.57;;;6.82;;
14137;SDS011;8199;51.310;9.466;2023-09-18T00:58:36;7.22;;;6.53;;
14137;SDS011;8199;51.310;9.466;2023-09-18T01:01:03;7.68;;;6.95;;
14137;SDS011;8199;51.310;9.466;2023-09-18T01:03:29;7.55;;;6.45;;
14137;SDS011;8199;51.310;9.466;2023-09-18T01:05:55;7.38;;;6.68;;
14137;SDS011;8199;51.310;9.466;2023-09-18T01:08:20;6.90;;;6.25;;
14137;SDS011;8199;51.310;9.466;2023-09-18T01:10:54;7.35;;;6.60;;
14137;SDS011;8199;51.310;9.466;2023-09-18T01:13:30;7.15;;;6.45;;
14137;SDS011;8199;51.310;9.466;2023-09-18T01:16:10;7.28;;;6.57;;
14137;SDS011;8199;51.310;9.466;2023-09-18T01:18:50;7.25;;;6.63;;
14137;SDS011;8199;51.310;9.466;2023-09-18T01:21:18;6.43;;;5.82;;
14137;SDS011;8199;51.310;9.466;2023-09-18T01:23:45;6.53;;;5.93;;
14137;SDS011;8199;51.310;9.466;2023-09-18T01:26:10;7.13;;;6.43;;
14137;SDS011;8199;51.310;9.466;2023-09-18T01:28:36;6.55;;;5.95;;
14137;SDS011;8199;51.310;9.466;2023-09-18T01:31:02;6.93;;;6.22;;
14137;SDS011;8199;51.310;9.466;2023-09-18T01:33:28;6.80;;;6.15;;
14137;SDS011;8199;51.310;9.466;2023-09-18T01:35:56;6.70;;;6.10;;
14137;SDS011;8199;51.310;9.466;2023-09-18T01:38:22;6.53;;;5.93;;
14137;SDS011;8199;51.310;9.466;2023-09-18T01:40:49;8.05;;;5.90;;
14137;SDS011;8199;51.310;9.466;2023-09-18T01:43:16;5.90;;;5.35;;
14137;SDS011;8199;51.310;9.466;2023-09-18T01:45:42;6.20;;;5.65;;
14137;SDS011;8199;51.310;9.466;2023-09-18T01:48:08;6.18;;;5.68;;
14137;SDS011;8199;51.310;9.466;2023-09-18T01:50:34;6.65;;;6.05;;
14137;SDS011;8199;51.310;9.466;2023-09-18T01:53:01;6.53;;;5.65;;
14137;SDS011;8199;51.310;9.466;2023-09-18T01:55:27;7.05;;;6.40;;
14137;SDS011;8199;51.310;9.466;2023-09-18T01:57:54;5.97;;;5.43;;
14137;SDS011;8199;51.310;9.466;2023-09-18T02:00:20;6.85;;;6.07;;
14137;SDS011;8199;51.310;9.466;2023-09-18T02:02:46;6.35;;;5.63;;
14137;SDS011;8199;51.310;9.466;2023-09-18T02:05:11;8.18;;;6.22;;
14137;SDS011;8199;51.310;9.466;2023-09-18T02:07:37;6.53;;;5.93;;
14137;SDS011;8199;51.310;9.466;2023-09-18T02:10:03;6.05;;;5.45;;
14137;SDS011;8199;51.310;9.466;2023-09-18T02:12:29;5.72;;;5.13;;
14137;SDS011;8199;51.310;9.466;2023-09-18T02:14:54;5.88;;;5.38;;
14137;SDS011;8199;51.310;9.466;2023-09-18T02:17:22;6.00;;;5.45;;
14137;SDS011;8199;51.310;9.466;2023-09-18T02:19:47;6.22;;;5.63;;
14137;SDS011;8199;51.310;9.466;2023-09-18T02:22:13;6.38;;;5.78;;
14137;SDS011;8199;51.310;9.466;2023-09-18T02:24:38;7.65;;;6.28;;
14137;SDS011;8199;51.310;9.466;2023-09-18T02:27:04;5.88;;;5.38;;
14137;SDS011;8199;51.310;9.466;2023-09-18T02:29:30;6.00;;;5.40;;
14137;SDS011;8199;51.310;9.466;2023-09-18T02:31:56;5.40;;;4.90;;
14137;SDS011;8199;51.310;9.466;2023-09-18T02:34:21;5.93;;;4.70;;
14137;SDS011;8199;51.310;9.466;2023-09-18T02:36:47;5.90;;;5.40;;
14137;SDS011;8199;51.310;9.466;2023-09-18T02:39:13;5.55;;;5.05;;
14137;SDS011;8199;51.310;9.466;2023-09-18T02:41:38;5.38;;;4.88;;
14137;SDS011;8199;51.310;9.466;2023-09-18T02:44:04;5.45;;;4.95;;
14137;SDS011;8199;51.310;9.466;2023-09-18T02:46:30;5.13;;;4.72;;
14137;SDS011;8199;51.310;9.466;2023-09-18T02:48:55;5.78;;;4.95;;
14137;SDS011;8199;51.310;9.466;2023-09-18T02:51:21;5.35;;;4.85;;
14137;SDS011;8199;51.310;9.466;2023-09-18T02:53:47;5.60;;;5.05;;
14137;SDS011;8199;51.310;9.466;2023-09-18T02:56:12;5.32;;;4.82;;
14137;SDS011;8199;51.310;9.466;2023-09-18T02:58:38;5.50;;;5.00;;
14137;SDS011;8199;51.310;9.466;2023-09-18T03:01:06;5.30;;;4.85;;
14137;SDS011;8199;51.310;9.466;2023-09-18T03:03:32;5.10;;;4.70;;
14137;SDS011;8199;51.310;9.466;2023-09-18T03:06:04;5.75;;;4.65;;
14137;SDS011;8199;51.310;9.466;2023-09-18T03:08:31;4.80;;;4.40;;
14137;SDS011;8199;51.310;9.466;2023-09-18T03:10:57;4.97;;;4.53;;
14137;SDS011;8199;51.310;9.466;2023-09-18T03:13:23;5.07;;;4.68;;
14137;SDS011;8199;51.310;9.466;2023-09-18T03:15:49;5.53;;;5.03;;
14137;SDS011;8199;51.310;9.466;2023-09-18T03:18:15;5.18;;;4.68;;
14137;SDS011;8199;51.310;9.466;2023-09-18T03:20:40;5.30;;;4.82;;
14137;SDS011;8199;51.310;9.466;2023-09-18T03:23:06;5.88;;;4.72;;
14137;SDS011;8199;51.310;9.466;2023-09-18T03:25:31;5.85;;;4.65;;
14137;SDS011;8199;51.310;9.466;2023-09-18T03:27:57;5.25;;;4.80;;
14137;SDS011;8199;51.310;9.466;2023-09-18T03:30:23;4.93;;;4.53;;
14137;SDS011;8199;51.310;9.466;2023-09-18T03:32:50;5.57;;;5.07;;
14137;SDS011;8199;51.310;9.466;2023-09-18T03:35:16;4.72;;;4.32;;
14137;SDS011;8199;51.310;9.466;2023-09-18T03:37:48;5.50;;;4.90;;
14137;SDS011;8199;51.310;9.466;2023-09-18T03:40:15;5.78;;;4.80;;
14137;SDS011;8199;51.310;9.466;2023-09-18T03:42:45;5.38;;;4.88;;
14137;SDS011;8199;51.310;9.466;2023-09-18T03:45:11;5.45;;;4.63;;
14137;SDS011;8199;51.310;9.466;2023-09-18T03:47:37;5.55;;;4.90;;
14137;SDS011;8199;51.310;9.466;2023-09-18T03:50:07;5.15;;;4.70;;
14137;SDS011;8199;51.310;9.466;2023-09-18T03:52:33;4.75;;;4.35;;
14137;SDS011;8199;51.310;9.466;2023-09-18T03:54:59;4.60;;;4.20;;
14137;SDS011;8199;51.310;9.466;2023-09-18T03:57:25;4.97;;;4.47;;
14137;SDS011;8199;51.310;9.466;2023-09-18T03:59:51;4.85;;;4.40;;
14137;SDS011;8199;51.310;9.466;2023-09-18T04:02:16;4.70;;;4.30;;
14137;SDS011;8199;51.310;9.466;2023-09-18T04:04:42;4.80;;;4.10;;
14137;SDS011;8199;51.310;9.466;2023-09-18T04:07:08;4.82;;;4.43;;
14137;SDS011;8199;51.310;9.466;2023-09-18T04:09:34;4.50;;;4.05;;
14137;SDS011;8199;51.310;9.466;2023-09-18T04:12:00;5.32;;;4.82;;
14137;SDS011;8199;51.310;9.466;2023-09-18T04:14:26;4.97;;;4.47;;
14137;SDS011;8199;51.310;9.466;2023-09-18T04:16:52;4.97;;;4.30;;
14137;SDS011;8199;51.310;9.466;2023-09-18T04:19:17;5.15;;;4.65;;
14137;SDS011;8199;51.310;9.466;2023-09-18T04:21:43;5.05;;;4.40;;
14137;SDS011;8199;51.310;9.466;2023-09-18T04:24:08;4.72;;;4.30;;
14137;SDS011;8199;51.310;9.466;2023-09-18T04:26:34;4.40;;;4.00;;
14137;SDS011;8199;51.310;9.466;2023-09-18T04:29:00;4.78;;;4.38;;
14137;SDS011;8199;51.310;9.466;2023-09-18T04:31:26;4.35;;;3.95;;
14137;SDS011;8199;51.310;9.466;2023-09-18T04:33:52;6.03;;;4.55;;
14137;SDS011;8199;51.310;9.466;2023-09-18T04:36:18;4.97;;;4.22;;
14137;SDS011;8199;51.310;9.466;2023-09-18T04:38:44;4.25;;;3.75;;
14137;SDS011;8199;51.310;9.466;2023-09-18T04:41:09;4.65;;;4.25;;
14137;SDS011;8199;51.310;9.466;2023-09-18T04:43:37;4.80;;;4.40;;
14137;SDS011;8199;51.310;9.466;2023-09-18T04:46:03;5.22;;;4.60;;
14137;SDS011;8199;51.310;9.466;2023-09-18T04:48:30;5.13;;;4.40;;
14137;SDS011;8199;51.310;9.466;2023-09-18T04:50:56;6.80;;;4.35;;
14137;SDS011;8199;51.310;9.466;2023-09-18T04:53:22;11.45;;;4.85;;
14137;SDS011;8199;51.310;9.466;2023-09-18T04:55:48;5.97;;;4.20;;
14137;SDS011;8199;51.310;9.466;2023-09-18T04:58:15;16.20;;;5.38;;
14137;SDS011;8199;51.310;9.466;2023-09-18T05:00:41;18.63;;;5.60;;
14137;SDS011;8199;51.310;9.466;2023-09-18T05:03:07;18.45;;;5.82;;
14137;SDS011;8199;51.310;9.466;2023-09-18T05:05:33;15.00;;;5.68;;
14137;SDS011;8199;51.310;9.466;2023-09-18T05:08:00;9.95;;;5.07;;
14137;SDS011;8199;51.310;9.466;2023-09-18T05:10:28;10.45;;;4.78;;
14137;SDS011;8199;51.310;9.466;2023-09-18T05:12:54;11.10;;;4.78;;
14137;SDS011;8199;51.310;9.466;2023-09-18T05:15:23;11.65;;;5.18;;
14137;SDS011;8199;51.310;9.466;2023-09-18T05:17:51;12.63;;;5.60;;
14137;SDS011;8199;51.310;9.466;2023-09-18T05:20:20;6.60;;;4.65;;
14137;SDS011;8199;51.310;9.466;2023-09-18T05:22:49;8.90;;;5.35;;
14137;SDS011;8199;51.310;9.466;2023-09-18T05:25:15;9.70;;;5.32;;
14137;SDS011;8199;51.310;9.466;2023-09-18T05:27:41;9.15;;;4.95;;
14137;SDS011;8199;51.310;9.466;2023-09-18T05:30:18;8.80;;;5.20;;
14137;SDS011;8199;51.310;9.466;2023-09-18T05:32:46;6.07;;;4.55;;
14137;SDS011;8199;51.310;9.466;2023-09-18T05:35:13;8.18;;;5.10;;
14137;SDS011;8199;51.310;9.466;2023-09-18T05:37:39;8.05;;;4.72;;
14137;SDS011;8199;51.310;9.466;2023-09-18T05:40:09;8.50;;;4.75;;
14137;SDS011;8199;51.310;9.466;2023-09-18T05:42:35;7.75;;;4.80;;
14137;SDS011;8199;51.310;9.466;2023-09-18T05:45:08;5.97;;;4.70;;
14137;SDS011;8199;51.310;9.466;2023-09-18T05:47:34;6.78;;;4.47;;
14137;SDS011;8199;51.310;9.466;2023-09-18T05:50:04;6.97;;;4.72;;
14137;SDS011;8199;51.310;9.466;2023-09-18T05:52:31;5.60;;;4.53;;
14137;SDS011;8199;51.310;9.466;2023-09-18T05:54:58;6.53;;;4.70;;
14137;SDS011;8199;51.310;9.466;2023-09-18T05:57:24;7.53;;;4.82;;
14137;SDS011;8199;51.310;9.466;2023-09-18T05:59:50;6.03;;;4.78;;
14137;SDS011;8199;51.310;9.466;2023-09-18T06:02:15;11.10;;;5.38;;
14137;SDS011;8199;51.310;9.466;2023-09-18T06:04:41;8.23;;;5.43;;
14137;SDS011;8199;51.310;9.466;2023-09-18T06:07:07;10.60;;;5.93;;
14137;SDS011;8199;51.310;9.466;2023-09-18T06:09:33;7.78;;;5.35;;
14137;SDS011;8199;51.310;9.466;2023-09-18T06:11:59;7.65;;;5.72;;
14137;SDS011;8199;51.310;9.466;2023-09-18T06:14:25;7.22;;;4.72;;
14137;SDS011;8199;51.310;9.466;2023-09-18T06:16:50;10.15;;;5.32;;
14137;SDS011;8199;51.310;9.466;2023-09-18T06:19:16;9.43;;;5.28;;
14137;SDS011;8199;51.310;9.466;2023-09-18T06:21:44;9.43;;;5.20;;
14137;SDS011;8199;51.310;9.466;2023-09-18T06:24:10;7.57;;;5.20;;
14137;SDS011;8199;51.310;9.466;2023-09-18T06:26:36;8.43;;;5.68;;
14137;SDS011;8199;51.310;9.466;2023-09-18T06:29:02;7.68;;;4.97;;
14137;SDS011;8199;51.310;9.466;2023-09-18T06:31:28;6.43;;;5.25;;
14137;SDS011;8199;51.310;9.466;2023-09-18T06:33:56;7.65;;;5.30;;
14137;SDS011;8199;51.310;9.466;2023-09-18T06:36:21;6.78;;;5.63;;
14137;SDS011;8199;51.310;9.466;2023-09-18T06:38:47;6.28;;;5.30;;
14137;SDS011;8199;51.310;9.466;2023-09-18T06:41:12;7.05;;;4.82;;
14137;SDS011;8199;51.310;9.466;2023-09-18T06:43:39;6.22;;;5.00;;
14137;SDS011;8199;51.310;9.466;2023-09-18T06:46:06;6.32;;;5.13;;
14137;SDS011;8199;51.310;9.466;2023-09-18T06:48:32;7.53;;;4.72;;
14137;SDS011;8199;51.310;9.466;2023-09-18T06:50:58;9.02;;;5.60;;
14137;SDS011;8199;51.310;9.466;2023-09-18T06:53:25;16.00;;;5.65;;
14137;SDS011;8199;51.310;9.466;2023-09-18T06:55:52;7.22;;;4.80;;
14137;SDS011;8199;51.310;9.466;2023-09-18T06:58:18;9.18;;;5.40;;
14137;SDS011;8199;51.310;9.466;2023-09-18T07:00:43;7.35;;;5.40;;
14137;SDS011;8199;51.310;9.466;2023-09-18T07:03:09;9.02;;;4.72;;
14137;SDS011;8199;51.310;9.466;2023-09-18T07:05:35;7.28;;;5.10;;
14137;SDS011;8199;51.310;9.466;2023-09-18T07:08:00;6.88;;;4.97;;
14137;SDS011;8199;51.310;9.466;2023-09-18T07:10:26;6.45;;;4.40;;
14137;SDS011;8199;51.310;9.466;2023-09-18T07:12:51;6.63;;;5.03;;
14137;SDS011;8199;51.310;9.466;2023-09-18T07:15:17;6.72;;;4.97;;
14137;SDS011;8199;51.310;9.466;2023-09-18T07:17:43;5.60;;;4.65;;
14137;SDS011;8199;51.310;9.466;2023-09-18T07:20:08;6.03;;;4.63;;
14137;SDS011;8199;51.310;9.466;2023-09-18T07:22:38;6.68;;;4.63;;
14137;SDS011;8199;51.310;9.466;2023-09-18T07:25:06;5.85;;;4.40;;
14137;SDS011;8199;51.310;9.466;2023-09-18T07:27:32;9.95;;;4.90;;
14137;SDS011;8199;51.310;9.466;2023-09-18T07:29:57;12.52;;;5.65;;
14137;SDS011;8199;51.310;9.466;2023-09-18T07:32:23;9.98;;;5.22;;
14137;SDS011;8199;51.310;9.466;2023-09-18T07:34:51;11.23;;;6.28;;
14137;SDS011;8199;51.310;9.466;2023-09-18T07:37:17;9.95;;;6.03;;
14137;SDS011;8199;51.310;9.466;2023-09-18T07:39:45;8.40;;;5.55;;
14137;SDS011;8199;51.310;9.466;2023-09-18T07:42:11;9.10;;;5.07;;
14137;SDS011;8199;51.310;9.466;2023-09-18T07:44:37;9.48;;;4.95;;
14137;SDS011;8199;51.310;9.466;2023-09-18T07:47:02;8.30;;;5.03;;
14137;SDS011;8199;51.310;9.466;2023-09-18T07:49:28;7.13;;;4.78;;
14137;SDS011;8199;51.310;9.466;2023-09-18T07:51:54;6.18;;;4.85;;
14137;SDS011;8199;51.310;9.466;2023-09-18T07:54:20;7.93;;;5.05;;
14137;SDS011;8199;51.310;9.466;2023-09-18T07:56:45;7.90;;;5.93;;
14137;SDS011;8199;51.310;9.466;2023-09-18T07:59:11;8.65;;;5.10;;
14137;SDS011;8199;51.310;9.466;2023-09-18T08:01:39;10.07;;;5.35;;
14137;SDS011;8199;51.310;9.466;2023-09-18T08:04:05;10.93;;;4.90;;
14137;SDS011;8199;51.310;9.466;2023-09-18T08:06:31;6.78;;;5.35;;
14137;SDS011;8199;51.310;9.466;2023-09-18T08:08:57;7.22;;;5.10;;
14137;SDS011;8199;51.310;9.466;2023-09-18T08:11:23;8.48;;;4.72;;
14137;SDS011;8199;51.310;9.466;2023-09-18T08:13:48;6.68;;;4.32;;
14137;SDS011;8199;51.310;9.466;2023-09-18T08:16:14;8.52;;;4.55;;
14137;SDS011;8199;51.310;9.466;2023-09-18T08:18:39;7.90;;;5.75;;
14137;SDS011;8199;51.310;9.466;2023-09-18T08:21:06;5.72;;;4.95;;
14137;SDS011;8199;51.310;9.466;2023-09-18T08:23:34;7.93;;;4.97;;
14137;SDS011;8199;51.310;9.466;2023-09-18T08:26:00;7.90;;;5.30;;
14137;SDS011;8199;51.310;9.466;2023-09-18T08:28:26;6.13;;;4.97;;
14137;SDS011;8199;51.310;9.466;2023-09-18T08:30:51;5.47;;;4.50;;
14137;SDS011;8199;51.310;9.466;2023-09-18T08:33:17;6.75;;;5.40;;
14137;SDS011;8199;51.310;9.466;2023-09-18T08:35:43;7.10;;;4.68;;
14137;SDS011;8199;51.310;9.466;2023-09-18T08:38:09;7.80;;;4.70;;
14137;SDS011;8199;51.310;9.466;2023-09-18T08:40:35;5.70;;;4.72;;
14137;SDS011;8199;51.310;9.466;2023-09-18T08:43:00;6.80;;;4.60;;
14137;SDS011;8199;51.310;9.466;2023-09-18T08:45:35;9.00;;;4.75;;
14137;SDS011;8199;51.310;9.466;2023-09-18T08:48:07;6.22;;;4.03;;
14137;SDS011;8199;51.310;9.466;2023-09-18T08:50:34;5.75;;;4.32;;
14137;SDS011;8199;51.310;9.466;2023-09-18T08:53:00;6.05;;;4.55;;
14137;SDS011;8199;51.310;9.466;2023-09-18T08:55:26;6.95;;;4.60;;
14137;SDS011;8199;51.310;9.466;2023-09-18T08:57:53;4.75;;;4.22;;
14137;SDS011;8199;51.310;9.466;2023-09-18T09:00:20;5.07;;;3.97;;
14137;SDS011;8199;51.310;9.466;2023-09-18T09:02:46;5.90;;;4.82;;
14137;SDS011;8199;51.310;9.466;2023-09-18T09:05:16;6.45;;;4.47;;
14137;SDS011;8199;51.310;9.466;2023-09-18T09:07:41;7.50;;;4.55;;
14137;SDS011;8199;51.310;9.466;2023-09-18T09:10:07;6.70;;;4.40;;
14137;SDS011;8199;51.310;9.466;2023-09-18T09:15:23;6.63;;;3.92;;
14137;SDS011;8199;51.310;9.466;2023-09-18T09:18:06;4.57;;;4.05;;
14137;SDS011;8199;51.310;9.466;2023-09-18T09:20:34;7.07;;;4.50;;
14137;SDS011;8199;51.310;9.466;2023-09-18T09:23:03;6.65;;;3.97;;
14137;SDS011;8199;51.310;9.466;2023-09-18T09:25:31;6.30;;;4.30;;
14137;SDS011;8199;51.310;9.466;2023-09-18T09:27:58;7.57;;;4.13;;
14137;SDS011;8199;51.310;9.466;2023-09-18T09:30:26;5.38;;;3.47;;
14137;SDS011;8199;51.310;9.466;2023-09-18T09:32:54;4.47;;;4.00;;
14137;SDS011;8199;51.310;9.466;2023-09-18T09:35:22;4.68;;;4.03;;
14137;SDS011;8199;51.310;9.466;2023-09-18T09:37:51;5.20;;;3.75;;
14137;SDS011;8199;51.310;9.466;2023-09-18T09:40:18;4.00;;;3.60;;
14137;SDS011;8199;51.310;9.466;2023-09-18T09:42:45;4.20;;;3.53;;
14137;SDS011;8199;51.310;9.466;2023-09-18T09:45:12;4.40;;;3.72;;
14137;SDS011;8199;51.310;9.466;2023-09-18T09:47:41;4.97;;;3.88;;
14137;SDS011;8199;51.310;9.466;2023-09-18T09:50:10;4.22;;;3.55;;
14137;SDS011;8199;51.310;9.466;2023-09-18T09:52:40;4.15;;;3.50;;
14137;SDS011;8199;51.310;9.466;2023-09-18T09:57:53;5.65;;;3.92;;
14137;SDS011;8199;51.310;9.466;2023-09-18T10:00:22;4.45;;;3.50;;
14137;SDS011;8199;51.310;9.466;2023-09-18T10:02:59;5.15;;;3.63;;
14137;SDS011;8199;51.310;9.466;2023-09-18T10:05:27;3.33;;;3.03;;
14137;SDS011;8199;51.310;9.466;2023-09-18T10:07:59;4.18;;;3.72;;
14137;SDS011;8199;51.310;9.466;2023-09-18T10:10:31;4.03;;;3.50;;
14137;SDS011;8199;51.310;9.466;2023-09-18T10:13:00;4.35;;;3.22;;
14137;SDS011;8199;51.310;9.466;2023-09-18T10:15:50;5.00;;;3.58;;
14137;SDS011;8199;51.310;9.466;2023-09-18T10:18:26;4.55;;;3.55;;
14137;SDS011;8199;51.310;9.466;2023-09-18T10:23:50;4.75;;;3.25;;
14137;SDS011;8199;51.310;9.466;2023-09-18T10:26:38;4.55;;;3.53;;
14137;SDS011;8199;51.310;9.466;2023-09-18T10:29:12;5.43;;;3.40;;
14137;SDS011;8199;51.310;9.466;2023-09-18T10:31:39;3.72;;;3.42;;
14137;SDS011;8199;51.310;9.466;2023-09-18T10:34:08;3.88;;;3.22;;
14137;SDS011;8199;51.310;9.466;2023-09-18T10:36:34;5.32;;;3.75;;
14137;SDS011;8199;51.310;9.466;2023-09-18T10:39:02;4.75;;;3.10;;
14137;SDS011;8199;51.310;9.466;2023-09-18T10:41:33;4.55;;;3.30;;
14137;SDS011;8199;51.310;9.466;2023-09-18T10:43:59;4.55;;;3.20;;
14137;SDS011;8199;51.310;9.466;2023-09-18T10:46:26;4.05;;;3.30;;
14137;SDS011;8199;51.310;9.466;2023-09-18T10:48:52;5.25;;;3.00;;
14137;SDS011;8199;51.310;9.466;2023-09-18T10:51:20;3.47;;;3.00;;
14137;SDS011;8199;51.310;9.466;2023-09-18T10:53:49;4.68;;;3.03;;
14137;SDS011;8199;51.310;9.466;2023-09-18T10:56:15;3.83;;;3.03;;
14137;SDS011;8199;51.310;9.466;2023-09-18T10:58:41;3.70;;;3.20;;
14137;SDS011;8199;51.310;9.466;2023-09-18T11:01:09;3.65;;;3.20;;
14137;SDS011;8199;51.310;9.466;2023-09-18T11:03:39;3.35;;;2.95;;
14137;SDS011;8199;51.310;9.466;2023-09-18T11:06:07;3.75;;;2.92;;
14137;SDS011;8199;51.310;9.466;2023-09-18T11:08:45;2.95;;;2.58;;
14137;SDS011;8199;51.310;9.466;2023-09-18T11:11:12;3.47;;;2.90;;
14137;SDS011;8199;51.310;9.466;2023-09-18T11:13:40;3.58;;;2.90;;
14137;SDS011;8199;51.310;9.466;2023-09-18T11:16:18;3.85;;;3.17;;
14137;SDS011;8199;51.310;9.466;2023-09-18T11:21:29;4.15;;;2.90;;
14137;SDS011;8199;51.310;9.466;2023-09-18T11:23:59;3.28;;;2.83;;
14137;SDS011;8199;51.310;9.466;2023-09-18T11:26:31;3.63;;;2.58;;
14137;SDS011;8199;51.310;9.466;2023-09-18T11:28:59;3.92;;;2.90;;
14137;SDS011;8199;51.310;9.466;2023-09-18T11:34:13;3.38;;;2.60;;
14137;SDS011;8199;51.310;9.466;2023-09-18T11:36:48;3.63;;;3.03;;
14137;SDS011;8199;51.310;9.466;2023-09-18T11:39:32;3.45;;;2.83;;
14137;SDS011;8199;51.310;9.466;2023-09-18T11:42:12;3.28;;;2.65;;
14137;SDS011;8199;51.310;9.466;2023-09-18T11:44:43;3.10;;;2.78;;
14137;SDS011;8199;51.310;9.466;2023-09-18T11:47:12;2.83;;;2.30;;
14137;SDS011;8199;51.310;9.466;2023-09-18T11:49:46;3.13;;;2.70;;
14137;SDS011;8199;51.310;9.466;2023-09-18T11:52:16;3.90;;;2.53;;
14137;SDS011;8199;51.310;9.466;2023-09-18T11:54:42;3.03;;;2.72;;
14137;SDS011;8199;51.310;9.466;2023-09-18T11:57:11;4.15;;;2.67;;
14137;SDS011;8199;51.310;9.466;2023-09-18T11:59:38;3.67;;;2.63;;
14137;SDS011;8199;51.310;9.466;2023-09-18T12:02:08;3.55;;;2.75;;
14137;SDS011;8199;51.310;9.466;2023-09-18T12:04:35;3.50;;;3.20;;
14137;SDS011;8199;51.310;9.466;2023-09-18T12:07:01;2.92;;;2.50;;
14137;SDS011;8199;51.310;9.466;2023-09-18T12:09:30;3.35;;;2.97;;
14137;SDS011;8199;51.310;9.466;2023-09-18T12:11:57;3.65;;;3.00;;
14137;SDS011;8199;51.310;9.466;2023-09-18T12:14:29;4.53;;;2.90;;
14137;SDS011;8199;51.310;9.466;2023-09-18T12:16:56;2.90;;;2.45;;
14137;SDS011;8199;51.310;9.466;2023-09-18T12:19:22;2.92;;;2.35;;
14137;SDS011;8199;51.310;9.466;2023-09-18T12:21:48;3.08;;;2.50;;
14137;SDS011;8199;51.310;9.466;2023-09-18T12:24:20;3.38;;;2.40;;
14137;SDS011;8199;51.310;9.466;2023-09-18T12:26:52;3.00;;;2.55;;
14137;SDS011;8199;51.310;9.466;2023-09-18T12:29:22;2.80;;;2.40;;
14137;SDS011;8199;51.310;9.466;2023-09-18T12:31:48;2.88;;;2.30;;
14137;SDS011;8199;51.310;9.466;2023-09-18T12:34:18;2.97;;;2.50;;
14137;SDS011;8199;51.310;9.466;2023-09-18T12:36:46;2.40;;;2.20;;
14137;SDS011;8199;51.310;9.466;2023-09-18T12:39:12;2.60;;;2.40;;
14137;SDS011;8199;51.310;9.466;2023-09-18T12:41:41;2.40;;;2.20;;
14137;SDS011;8199;51.310;9.466;2023-09-18T12:44:11;2.65;;;2.45;;
14137;SDS011;8199;51.310;9.466;2023-09-18T12:46:37;2.60;;;2.40;;
14137;SDS011;8199;51.310;9.466;2023-09-18T12:49:18;2.63;;;2.35;;
14137;SDS011;8199;51.310;9.466;2023-09-18T12:51:59;2.58;;;2.35;;
14137;SDS011;8199;51.310;9.466;2023-09-18T12:54:42;2.47;;;2.28;;
14137;SDS011;8199;51.310;9.466;2023-09-18T12:57:19;4.18;;;3.05;;
14137;SDS011;8199;51.310;9.466;2023-09-18T12:59:44;3.20;;;2.30;;
14137;SDS011;8199;51.310;9.466;2023-09-18T13:02:17;2.85;;;2.40;;
14137;SDS011;8199;51.310;9.466;2023-09-18T13:04:50;2.53;;;2.33;;
14137;SDS011;8199;51.310;9.466;2023-09-18T13:07:20;2.88;;;2.38;;
14137;SDS011;8199;51.310;9.466;2023-09-18T13:10:00;2.28;;;2.00;;
14137;SDS011;8199;51.310;9.466;2023-09-18T13:12:40;2.33;;;2.05;;
14137;SDS011;8199;51.310;9.466;2023-09-18T13:15:23;2.50;;;2.28;;
14137;SDS011;8199;51.310;9.466;2023-09-18T13:17:59;2.20;;;2.00;;
14137;SDS011;8199;51.310;9.466;2023-09-18T13:20:29;2.50;;;2.30;;
14137;SDS011;8199;51.310;9.466;2023-09-18T13:22:55;2.35;;;2.08;;
14137;SDS011;8199;51.310;9.466;2023-09-18T13:25:23;3.15;;;2.42;;
14137;SDS011;8199;51.310;9.466;2023-09-18T13:27:50;2.35;;;2.08;;
14137;SDS011;8199;51.310;9.466;2023-09-18T13:30:18;2.72;;;2.03;;
14137;SDS011;8199;51.310;9.466;2023-09-18T13:32:46;2.50;;;2.30;;
14137;SDS011;8199;51.310;9.466;2023-09-18T13:35:16;2.53;;;2.33;;
14137;SDS011;8199;51.310;9.466;2023-09-18T13:37:42;2.42;;;2.22;;
14137;SDS011;8199;51.310;9.466;2023-09-18T13:40:08;2.80;;;2.53;;
14137;SDS011;8199;51.310;9.466;2023-09-18T13:42:35;2.30;;;2.10;;
14137;SDS011;8199;51.310;9.466;2023-09-18T13:45:01;2.78;;;2.58;;
14137;SDS011;8199;51.310;9.466;2023-09-18T13:47:34;4.18;;;2.90;;
14137;SDS011;8199;51.310;9.466;2023-09-18T13:50:01;3.10;;;2.80;;
14137;SDS011;8199;51.310;9.466;2023-09-18T13:52:29;4.35;;;3.50;;
14137;SDS011;8199;51.310;9.466;2023-09-18T13:54:55;3.45;;;2.90;;
14137;SDS011;8199;51.310;9.466;2023-09-18T13:57:21;4.15;;;3.03;;
14137;SDS011;8199;51.310;9.466;2023-09-18T13:59:48;3.97;;;2.65;;
14137;SDS011;8199;51.310;9.466;2023-09-18T14:02:14;3.03;;;2.75;;
14137;SDS011;8199;51.310;9.466;2023-09-18T14:04:40;3.35;;;2.83;;
14137;SDS011;8199;51.310;9.466;2023-09-18T14:07:06;6.45;;;2.90;;
14137;SDS011;8199;51.310;9.466;2023-09-18T14:09:33;3.28;;;2.97;;
14137;SDS011;8199;51.310;9.466;2023-09-18T14:11:59;3.13;;;2.85;;
14137;SDS011;8199;51.310;9.466;2023-09-18T14:14:26;2.80;;;2.38;;
14137;SDS011;8199;51.310;9.466;2023-09-18T14:16:51;3.28;;;2.83;;
14137;SDS011;8199;51.310;9.466;2023-09-18T14:19:17;2.88;;;2.58;;
14137;SDS011;8199;51.310;9.466;2023-09-18T14:21:43;2.58;;;2.38;;
14137;SDS011;8199;51.310;9.466;2023-09-18T14:24:09;3.28;;;2.45;;
14137;SDS011;8199;51.310;9.466;2023-09-18T14:26:35;2.53;;;2.33;;
14137;SDS011;8199;51.310;9.466;2023-09-18T14:29:08;3.10;;;2.60;;
14137;SDS011;8199;51.310;9.466;2023-09-18T14:31:35;3.22;;;2.25;;
14137;SDS011;8199;51.310;9.466;2023-09-18T14:34:01;3.70;;;2.42;;
14137;SDS011;8199;51.310;9.466;2023-09-18T14:36:27;3.05;;;2.50;;
14137;SDS011;8199;51.310;9.466;2023-09-18T14:38:54;4.50;;;2.28;;
14137;SDS011;8199;51.310;9.466;2023-09-18T14:41:20;2.88;;;2.50;;
14137;SDS011;8199;51.310;9.466;2023-09-18T14:43:46;2.72;;;2.53;;
14137;SDS011;8199;51.310;9.466;2023-09-18T14:46:12;3.42;;;2.60;;
14137;SDS011;8199;51.310;9.466;2023-09-18T14:48:38;4.05;;;2.50;;
14137;SDS011;8199;51.310;9.466;2023-09-18T14:51:04;16.42;;;4.28;;
14137;SDS011;8199;51.310;9.466;2023-09-18T14:53:29;11.02;;;4.03;;
14137;SDS011;8199;51.310;9.466;2023-09-18T14:55:55;14.88;;;4.57;;
14137;SDS011;8199;51.310;9.466;2023-09-18T14:58:21;8.00;;;3.85;;
14137;SDS011;8199;51.310;9.466;2023-09-18T15:00:48;13.68;;;4.38;;
14137;SDS011;8199;51.310;9.466;2023-09-18T15:03:14;12.43;;;3.80;;
14137;SDS011;8199;51.310;9.466;2023-09-18T15:05:40;11.38;;;3.95;;
14137;SDS011;8199;51.310;9.466;2023-09-18T15:08:06;7.53;;;3.83;;
14137;SDS011;8199;51.310;9.466;2023-09-18T15:10:32;9.63;;;3.70;;
14137;SDS011;8199;51.310;9.466;2023-09-18T15:12:58;11.50;;;3.88;;
14137;SDS011;8199;51.310;9.466;2023-09-18T15:15:24;7.32;;;3.38;;